sensor_id;sensor_type;location;lat;lon;timestamp;pressure;altitude;pressure_sealevel;temperature;humidity
66479;BME280;53294;47.912;13.526;2024-02-28T00:01:50;95952.78;;;2.69;83.25
66479;BME280;53294;47.912;13.526;2024-02-28T00:04:18;95951.91;;;2.64;82.41
66479;BME280;53294;47.912;13.526;2024-02-28T00:06:45;95960.75;;;2.69;83.24
66479;BME280;53294;47.912;13.526;2024-02-28T00:09:15;95964.44;;;2.68;83.49
66479;BME280;53294;47.912;13.526;2024-02-28T00:11:43;95966.03;;;2.69;84.06
66479;BME280;53294;47.912;13.526;2024-02-28T00:14:11;95973.84;;;2.54;83.83
66479;BME280;53294;47.912;13.526;2024-02-28T00:16:45;95972.56;;;2.57;85.82
66479;BME280;53294;47.912;13.526;2024-02-28T00:19:12;95974.75;;;2.65;85.63
66479;BME280;53294;47.912;13.526;2024-02-28T00:21:40;95973.63;;;2.61;85.05
66479;BME280;53294;47.912;13.526;2024-02-28T00:24:08;95973.84;;;2.54;85.19
66479;BME280;53294;47.912;13.526;2024-02-28T00:26:35;95974.38;;;2.56;84.92
66479;BME280;53294;47.912;13.526;2024-02-28T00:29:02;95977.44;;;2.43;86.03
66479;BME280;53294;47.912;13.526;2024-02-28T00:31:29;95981.63;;;2.39;85.36
66479;BME280;53294;47.912;13.526;2024-02-28T00:33:56;95984.66;;;1.86;85.96
66479;BME280;53294;47.912;13.526;2024-02-28T00:36:23;95994.44;;;2.03;86.00
66479;BME280;53294;47.912;13.526;2024-02-28T00:38:50;95981.81;;;2.10;84.97
66479;BME280;53294;47.912;13.526;2024-02-28T00:41:17;95981.22;;;1.86;87.33
66479;BME280;53294;47.912;13.526;2024-02-28T00:43:43;95980.94;;;1.82;87.97
66479;BME280;53294;47.912;13.526;2024-02-28T00:46:10;95981.34;;;1.57;88.34
66479;BME280;53294;47.912;13.526;2024-02-28T00:48:40;95989.63;;;1.43;90.56
66479;BME280;53294;47.912;13.526;2024-02-28T00:51:07;95989.03;;;1.58;89.10
66479;BME280;53294;47.912;13.526;2024-02-28T00:53:36;95993.53;;;1.75;88.00
66479;BME280;53294;47.912;13.526;2024-02-28T00:56:03;95992.38;;;1.88;87.34
66479;BME280;53294;47.912;13.526;2024-02-28T00:58:30;96004.50;;;2.01;86.89
66479;BME280;53294;47.912;13.526;2024-02-28T01:00:57;96006.91;;;2.02;87.21
66479;BME280;53294;47.912;13.526;2024-02-28T01:03:24;96017.31;;;2.09;85.82
66479;BME280;53294;47.912;13.526;2024-02-28T01:05:51;96009.13;;;2.10;84.64
66479;BME280;53294;47.912;13.526;2024-02-28T01:08:18;96013.13;;;2.13;83.79
66479;BME280;53294;47.912;13.526;2024-02-28T01:10:45;96017.38;;;2.14;83.98
66479;BME280;53294;47.912;13.526;2024-02-28T01:13:12;96029.88;;;2.19;83.63
66479;BME280;53294;47.912;13.526;2024-02-28T01:15:40;96027.47;;;2.17;83.04
66479;BME280;53294;47.912;13.526;2024-02-28T01:18:10;96033.25;;;2.14;82.64
66479;BME280;53294;47.912;13.526;2024-02-28T01:20:37;96042.19;;;2.08;82.76
66479;BME280;53294;47.912;13.526;2024-02-28T01:23:04;96040.03;;;2.05;82.37
66479;BME280;53294;47.912;13.526;2024-02-28T01:25:31;96045.75;;;1.96;83.45
66479;BME280;53294;47.912;13.526;2024-02-28T01:27:58;96041.00;;;1.98;83.43
66479;BME280;53294;47.912;13.526;2024-02-28T01:30:25;96046.88;;;2.01;83.11
66479;BME280;53294;47.912;13.526;2024-02-28T01:32:52;96047.28;;;1.92;82.80
66479;BME280;53294;47.912;13.526;2024-02-28T01:35:19;96042.34;;;1.79;83.12
66479;BME280;53294;47.912;13.526;2024-02-28T01:37:46;96028.84;;;1.81;82.71
66479;BME280;53294;47.912;13.526;2024-02-28T01:40:13;96036.22;;;1.78;83.18
66479;BME280;53294;47.912;13.526;2024-02-28T01:42:40;96056.13;;;1.81;83.37
66479;BME280;53294;47.912;13.526;2024-02-28T01:45:10;96063.03;;;1.82;84.19
66479;BME280;53294;47.912;13.526;2024-02-28T01:47:41;96047.94;;;1.83;84.82
66479;BME280;53294;47.912;13.526;2024-02-28T01:50:09;96050.81;;;1.81;83.90
66479;BME280;53294;47.912;13.526;2024-02-28T01:52:40;96052.09;;;1.61;84.67
66479;BME280;53294;47.912;13.526;2024-02-28T01:55:07;96047.41;;;1.64;85.28
66479;BME280;53294;47.912;13.526;2024-02-28T01:57:36;96054.53;;;1.46;87.03
66479;BME280;53294;47.912;13.526;2024-02-28T02:00:06;96068.97;;;1.55;87.22
66479;BME280;53294;47.912;13.526;2024-02-28T02:02:34;96066.16;;;1.62;86.76
66479;BME280;53294;47.912;13.526;2024-02-28T02:05:01;96058.59;;;1.71;86.04
66479;BME280;53294;47.912;13.526;2024-02-28T02:07:28;96061.34;;;1.76;85.32
66479;BME280;53294;47.912;13.526;2024-02-28T02:09:55;96064.88;;;1.82;84.20
66479;BME280;53294;47.912;13.526;2024-02-28T02:12:23;96064.63;;;1.83;82.97
66479;BME280;53294;47.912;13.526;2024-02-28T02:14:50;96070.56;;;1.90;84.59
66479;BME280;53294;47.912;13.526;2024-02-28T02:17:16;96066.53;;;1.88;83.77
66479;BME280;53294;47.912;13.526;2024-02-28T02:19:44;96071.22;;;1.81;83.94
66479;BME280;53294;47.912;13.526;2024-02-28T02:22:13;96069.31;;;1.76;85.23
66479;BME280;53294;47.912;13.526;2024-02-28T02:24:41;96076.41;;;1.58;85.31
66479;BME280;53294;47.912;13.526;2024-02-28T02:27:08;96076.34;;;1.53;85.10
66479;BME280;53294;47.912;13.526;2024-02-28T02:29:34;96077.72;;;1.39;86.99
66479;BME280;53294;47.912;13.526;2024-02-28T02:32:01;96074.91;;;1.46;88.38
66479;BME280;53294;47.912;13.526;2024-02-28T02:34:28;96079.06;;;1.58;89.26
66479;BME280;53294;47.912;13.526;2024-02-28T02:36:55;96090.97;;;1.73;90.42
66479;BME280;53294;47.912;13.526;2024-02-28T02:39:22;96079.56;;;1.72;88.45
66479;BME280;53294;47.912;13.526;2024-02-28T02:41:49;96078.44;;;1.51;87.84
66479;BME280;53294;47.912;13.526;2024-02-28T02:44:16;96088.56;;;1.54;88.59
66479;BME280;53294;47.912;13.526;2024-02-28T02:46:43;96083.75;;;1.51;88.48
66479;BME280;53294;47.912;13.526;2024-02-28T02:49:09;96071.69;;;1.43;88.67
66479;BME280;53294;47.912;13.526;2024-02-28T02:51:36;96068.66;;;1.52;88.40
66479;BME280;53294;47.912;13.526;2024-02-28T02:54:03;96065.44;;;1.33;88.14
66479;BME280;53294;47.912;13.526;2024-02-28T02:56:30;96067.34;;;1.37;88.55
66479;BME280;53294;47.912;13.526;2024-02-28T02:58:57;96072.31;;;1.51;88.43
66479;BME280;53294;47.912;13.526;2024-02-28T03:01:23;96075.78;;;1.51;86.98
66479;BME280;53294;47.912;13.526;2024-02-28T03:03:50;96083.56;;;1.58;88.44
66479;BME280;53294;47.912;13.526;2024-02-28T03:06:18;96082.91;;;1.68;88.11
66479;BME280;53294;47.912;13.526;2024-02-28T03:08:44;96075.72;;;1.46;87.70
66479;BME280;53294;47.912;13.526;2024-02-28T03:11:11;96088.22;;;1.51;86.84
66479;BME280;53294;47.912;13.526;2024-02-28T03:13:38;96087.72;;;1.54;86.58
66479;BME280;53294;47.912;13.526;2024-02-28T03:16:05;96101.38;;;1.63;87.72
66479;BME280;53294;47.912;13.526;2024-02-28T03:18:32;96102.59;;;1.72;87.51
66479;BME280;53294;47.912;13.526;2024-02-28T03:20:58;96099.78;;;1.78;87.52
66479;BME280;53294;47.912;13.526;2024-02-28T03:23:25;96082.13;;;1.84;87.15
66479;BME280;53294;47.912;13.526;2024-02-28T03:25:52;96084.28;;;1.87;86.56
66479;BME280;53294;47.912;13.526;2024-02-28T03:28:18;96096.03;;;1.91;85.95
66479;BME280;53294;47.912;13.526;2024-02-28T03:30:45;96106.88;;;1.90;84.50
66479;BME280;53294;47.912;13.526;2024-02-28T03:33:12;96101.72;;;1.83;85.41
66479;BME280;53294;47.912;13.526;2024-02-28T03:35:39;96102.03;;;1.70;87.28
66479;BME280;53294;47.912;13.526;2024-02-28T03:38:05;96096.03;;;1.74;88.66
66479;BME280;53294;47.912;13.526;2024-02-28T03:40:32;96093.19;;;1.64;88.53
66479;BME280;53294;47.912;13.526;2024-02-28T03:42:59;96105.41;;;1.65;89.84
66479;BME280;53294;47.912;13.526;2024-02-28T03:45:29;96110.63;;;1.77;90.27
66479;BME280;53294;47.912;13.526;2024-02-28T03:47:56;96116.63;;;1.89;88.72
66479;BME280;53294;47.912;13.526;2024-02-28T03:50:23;96121.63;;;2.03;88.56
66479;BME280;53294;47.912;13.526;2024-02-28T03:52:49;96121.31;;;2.16;88.68
66479;BME280;53294;47.912;13.526;2024-02-28T03:55:17;96118.66;;;2.16;88.49
66479;BME280;53294;47.912;13.526;2024-02-28T03:57:47;96124.50;;;2.01;87.90
66479;BME280;53294;47.912;13.526;2024-02-28T04:00:14;96137.69;;;2.13;88.03
66479;BME280;53294;47.912;13.526;2024-02-28T04:02:41;96131.72;;;2.23;89.01
66479;BME280;53294;47.912;13.526;2024-02-28T04:05:08;96129.28;;;2.38;88.99
66479;BME280;53294;47.912;13.526;2024-02-28T04:07:34;96131.75;;;2.45;88.93
66479;BME280;53294;47.912;13.526;2024-02-28T04:10:01;96145.16;;;2.55;88.10
66479;BME280;53294;47.912;13.526;2024-02-28T04:12:31;96133.50;;;2.56;87.01
66479;BME280;53294;47.912;13.526;2024-02-28T04:14:58;96132.47;;;2.57;87.49
66479;BME280;53294;47.912;13.526;2024-02-28T04:17:25;96130.69;;;2.63;88.07
66479;BME280;53294;47.912;13.526;2024-02-28T04:19:51;96147.53;;;2.74;87.64
66479;BME280;53294;47.912;13.526;2024-02-28T04:22:18;96149.25;;;2.85;87.27
66479;BME280;53294;47.912;13.526;2024-02-28T04:24:45;96147.16;;;2.87;85.71
66479;BME280;53294;47.912;13.526;2024-02-28T04:27:12;96146.66;;;2.90;85.87
66479;BME280;53294;47.912;13.526;2024-02-28T04:29:39;96150.44;;;2.94;85.85
66479;BME280;53294;47.912;13.526;2024-02-28T04:32:06;96148.91;;;2.98;85.90
66479;BME280;53294;47.912;13.526;2024-02-28T04:34:32;96148.97;;;3.03;85.69
66479;BME280;53294;47.912;13.526;2024-02-28T04:36:59;96151.66;;;3.09;85.19
66479;BME280;53294;47.912;13.526;2024-02-28T04:39:26;96153.03;;;3.11;85.16
66479;BME280;53294;47.912;13.526;2024-02-28T04:41:52;96150.13;;;3.13;85.47
66479;BME280;53294;47.912;13.526;2024-02-28T04:44:19;96150.66;;;3.15;85.88
66479;BME280;53294;47.912;13.526;2024-02-28T04:46:46;96149.63;;;3.16;85.82
66479;BME280;53294;47.912;13.526;2024-02-28T04:49:12;96144.31;;;3.16;85.94
66479;BME280;53294;47.912;13.526;2024-02-28T04:51:39;96154.59;;;3.12;86.63
66479;BME280;53294;47.912;13.526;2024-02-28T04:54:06;96162.81;;;3.11;87.18
66479;BME280;53294;47.912;13.526;2024-02-28T04:56:33;96152.19;;;3.11;86.98
66479;BME280;53294;47.912;13.526;2024-02-28T04:58:59;96152.09;;;3.00;86.82
66479;BME280;53294;47.912;13.526;2024-02-28T05:01:26;96165.91;;;3.02;87.62
66479;BME280;53294;47.912;13.526;2024-02-28T05:03:54;96164.94;;;3.09;87.75
66479;BME280;53294;47.912;13.526;2024-02-28T05:06:21;96162.91;;;3.16;88.14
66479;BME280;53294;47.912;13.526;2024-02-28T05:08:48;96169.91;;;3.27;88.38
66479;BME280;53294;47.912;13.526;2024-02-28T05:11:15;96171.34;;;3.35;87.63
66479;BME280;53294;47.912;13.526;2024-02-28T05:13:42;96163.38;;;3.35;87.45
66479;BME280;53294;47.912;13.526;2024-02-28T05:16:13;96171.38;;;3.40;86.97
66479;BME280;53294;47.912;13.526;2024-02-28T05:18:40;96170.63;;;3.45;87.34
66479;BME280;53294;47.912;13.526;2024-02-28T05:21:07;96172.28;;;3.51;86.71
66479;BME280;53294;47.912;13.526;2024-02-28T05:23:33;96180.34;;;3.56;87.28
66479;BME280;53294;47.912;13.526;2024-02-28T05:26:01;96180.13;;;3.63;86.21
66479;BME280;53294;47.912;13.526;2024-02-28T05:28:30;96181.78;;;3.69;85.51
66479;BME280;53294;47.912;13.526;2024-02-28T05:31:00;96183.13;;;3.71;84.92
66479;BME280;53294;47.912;13.526;2024-02-28T05:33:27;96186.59;;;3.72;85.01
66479;BME280;53294;47.912;13.526;2024-02-28T05:35:53;96187.38;;;3.72;84.91
66479;BME280;53294;47.912;13.526;2024-02-28T05:38:20;96187.97;;;3.74;84.95
66479;BME280;53294;47.912;13.526;2024-02-28T05:40:47;96191.13;;;3.71;85.22
66479;BME280;53294;47.912;13.526;2024-02-28T05:43:13;96193.78;;;3.71;85.45
66479;BME280;53294;47.912;13.526;2024-02-28T05:45:40;96190.63;;;3.74;85.48
66479;BME280;53294;47.912;13.526;2024-02-28T05:48:07;96193.31;;;3.80;85.26
66479;BME280;53294;47.912;13.526;2024-02-28T05:50:34;96195.47;;;3.83;85.38
66479;BME280;53294;47.912;13.526;2024-02-28T05:53:00;96199.69;;;3.84;85.49
66479;BME280;53294;47.912;13.526;2024-02-28T05:55:27;96197.56;;;3.81;85.18
66479;BME280;53294;47.912;13.526;2024-02-28T05:57:54;96209.75;;;3.76;85.39
66479;BME280;53294;47.912;13.526;2024-02-28T06:00:21;96214.53;;;3.74;85.90
66479;BME280;53294;47.912;13.526;2024-02-28T06:02:48;96204.78;;;3.58;85.81
66479;BME280;53294;47.912;13.526;2024-02-28T06:05:14;96218.19;;;3.46;87.01
66479;BME280;53294;47.912;13.526;2024-02-28T06:07:41;96224.56;;;3.45;87.00
66479;BME280;53294;47.912;13.526;2024-02-28T06:10:08;96236.06;;;3.29;88.07
66479;BME280;53294;47.912;13.526;2024-02-28T06:12:36;96232.41;;;3.13;89.31
66479;BME280;53294;47.912;13.526;2024-02-28T06:15:04;96231.22;;;3.26;90.07
66479;BME280;53294;47.912;13.526;2024-02-28T06:17:31;96240.75;;;3.44;88.99
66479;BME280;53294;47.912;13.526;2024-02-28T06:19:58;96236.66;;;3.58;88.37
66479;BME280;53294;47.912;13.526;2024-02-28T06:22:24;96226.69;;;3.70;87.35
66479;BME280;53294;47.912;13.526;2024-02-28T06:24:51;96233.16;;;3.80;86.24
66479;BME280;53294;47.912;13.526;2024-02-28T06:27:18;96242.22;;;3.84;85.48
66479;BME280;53294;47.912;13.526;2024-02-28T06:29:45;96246.25;;;3.86;85.55
66479;BME280;53294;47.912;13.526;2024-02-28T06:32:11;96248.69;;;3.93;85.71
66479;BME280;53294;47.912;13.526;2024-02-28T06:34:38;96241.88;;;4.02;85.51
66479;BME280;53294;47.912;13.526;2024-02-28T06:37:05;96250.41;;;4.04;85.12
66479;BME280;53294;47.912;13.526;2024-02-28T06:39:32;96252.63;;;4.12;85.17
66479;BME280;53294;47.912;13.526;2024-02-28T06:41:58;96249.50;;;4.21;84.82
66479;BME280;53294;47.912;13.526;2024-02-28T06:44:25;96246.63;;;4.27;84.36
66479;BME280;53294;47.912;13.526;2024-02-28T06:46:52;96249.06;;;4.34;83.86
66479;BME280;53294;47.912;13.526;2024-02-28T06:49:19;96255.00;;;4.41;83.48
66479;BME280;53294;47.912;13.526;2024-02-28T06:51:45;96248.59;;;4.42;83.38
66479;BME280;53294;47.912;13.526;2024-02-28T06:54:12;96264.88;;;4.46;84.33
66479;BME280;53294;47.912;13.526;2024-02-28T06:56:39;96259.09;;;4.54;84.20
66479;BME280;53294;47.912;13.526;2024-02-28T06:59:06;96261.53;;;4.66;83.89
66479;BME280;53294;47.912;13.526;2024-02-28T07:01:33;96273.06;;;4.77;83.44
66479;BME280;53294;47.912;13.526;2024-02-28T07:04:00;96272.34;;;4.87;82.87
66479;BME280;53294;47.912;13.526;2024-02-28T07:06:27;96274.97;;;4.81;82.67
66479;BME280;53294;47.912;13.526;2024-02-28T07:08:54;96278.19;;;4.83;83.29
66479;BME280;53294;47.912;13.526;2024-02-28T07:11:21;96284.91;;;4.91;83.32
66479;BME280;53294;47.912;13.526;2024-02-28T07:13:48;96282.25;;;4.96;83.38
66479;BME280;53294;47.912;13.526;2024-02-28T07:16:15;96294.28;;;5.04;83.36
66479;BME280;53294;47.912;13.526;2024-02-28T07:18:42;96306.03;;;5.08;84.09
66479;BME280;53294;47.912;13.526;2024-02-28T07:21:08;96303.38;;;5.08;83.40
66479;BME280;53294;47.912;13.526;2024-02-28T07:23:39;96305.03;;;5.19;82.69
66479;BME280;53294;47.912;13.526;2024-02-28T07:26:07;96310.41;;;5.30;83.00
66479;BME280;53294;47.912;13.526;2024-02-28T07:28:45;96307.53;;;5.36;83.27
66479;BME280;53294;47.912;13.526;2024-02-28T07:31:16;96319.00;;;5.42;83.42
66479;BME280;53294;47.912;13.526;2024-02-28T07:33:43;96328.63;;;5.48;83.17
66479;BME280;53294;47.912;13.526;2024-02-28T07:36:10;96329.19;;;5.50;82.74
66479;BME280;53294;47.912;13.526;2024-02-28T07:38:37;96331.28;;;5.43;83.62
66479;BME280;53294;47.912;13.526;2024-02-28T07:41:04;96336.34;;;5.45;83.33
66479;BME280;53294;47.912;13.526;2024-02-28T07:43:31;96323.78;;;5.40;82.85
66479;BME280;53294;47.912;13.526;2024-02-28T07:46:10;96335.03;;;5.47;81.82
66479;BME280;53294;47.912;13.526;2024-02-28T07:48:38;96342.53;;;5.55;81.28
66479;BME280;53294;47.912;13.526;2024-02-28T07:51:06;96343.56;;;5.49;81.94
66479;BME280;53294;47.912;13.526;2024-02-28T07:53:33;96346.75;;;5.51;83.19
66479;BME280;53294;47.912;13.526;2024-02-28T07:56:00;96340.38;;;5.52;83.84
66479;BME280;53294;47.912;13.526;2024-02-28T07:58:26;96343.31;;;5.56;84.05
66479;BME280;53294;47.912;13.526;2024-02-28T08:00:53;96347.84;;;5.55;83.62
66479;BME280;53294;47.912;13.526;2024-02-28T08:03:20;96359.09;;;5.63;82.76
66479;BME280;53294;47.912;13.526;2024-02-28T08:05:47;96356.16;;;5.64;82.82
66479;BME280;53294;47.912;13.526;2024-02-28T08:08:15;96355.41;;;5.74;82.51
66479;BME280;53294;47.912;13.526;2024-02-28T08:10:41;96355.97;;;5.81;82.62
66479;BME280;53294;47.912;13.526;2024-02-28T08:13:08;96354.41;;;5.90;82.35
66479;BME280;53294;47.912;13.526;2024-02-28T08:15:35;96361.63;;;5.95;81.98
66479;BME280;53294;47.912;13.526;2024-02-28T08:18:03;96359.72;;;5.85;82.59
66479;BME280;53294;47.912;13.526;2024-02-28T08:20:30;96357.63;;;5.87;82.47
66479;BME280;53294;47.912;13.526;2024-02-28T08:22:56;96358.22;;;6.05;81.64
66479;BME280;53294;47.912;13.526;2024-02-28T08:25:24;96356.13;;;6.17;81.12
66479;BME280;53294;47.912;13.526;2024-02-28T08:27:51;96364.44;;;6.31;80.24
66479;BME280;53294;47.912;13.526;2024-02-28T08:30:18;96359.94;;;6.47;79.79
66479;BME280;53294;47.912;13.526;2024-02-28T08:32:45;96357.00;;;6.43;80.04
66479;BME280;53294;47.912;13.526;2024-02-28T08:35:11;96367.69;;;6.54;80.13
66479;BME280;53294;47.912;13.526;2024-02-28T08:37:39;96365.28;;;6.47;79.36
66479;BME280;53294;47.912;13.526;2024-02-28T08:40:06;96364.19;;;6.33;79.41
66479;BME280;53294;47.912;13.526;2024-02-28T08:42:33;96371.41;;;6.42;79.50
66479;BME280;53294;47.912;13.526;2024-02-28T08:45:00;96372.75;;;6.50;78.85
66479;BME280;53294;47.912;13.526;2024-02-28T08:47:27;96367.41;;;6.45;79.20
66479;BME280;53294;47.912;13.526;2024-02-28T08:49:54;96371.09;;;6.28;79.42
66479;BME280;53294;47.912;13.526;2024-02-28T08:52:21;96373.81;;;6.44;79.38
66479;BME280;53294;47.912;13.526;2024-02-28T08:54:48;96373.00;;;6.54;79.06
66479;BME280;53294;47.912;13.526;2024-02-28T08:57:15;96374.38;;;6.61;78.49
66479;BME280;53294;47.912;13.526;2024-02-28T08:59:42;96377.06;;;6.77;77.75
66479;BME280;53294;47.912;13.526;2024-02-28T09:02:09;96376.53;;;6.90;76.99
66479;BME280;53294;47.912;13.526;2024-02-28T09:04:37;96379.47;;;6.99;76.15
66479;BME280;53294;47.912;13.526;2024-02-28T09:07:04;96373.84;;;7.16;75.24
66479;BME280;53294;47.912;13.526;2024-02-28T09:09:31;96380.81;;;7.17;75.91
66479;BME280;53294;47.912;13.526;2024-02-28T09:12:00;96390.41;;;7.23;75.38
66479;BME280;53294;47.912;13.526;2024-02-28T09:14:30;96392.03;;;7.24;74.79
66479;BME280;53294;47.912;13.526;2024-02-28T09:16:56;96395.78;;;6.87;76.03
66479;BME280;53294;47.912;13.526;2024-02-28T09:19:33;96390.66;;;6.60;77.58
66479;BME280;53294;47.912;13.526;2024-02-28T09:22:00;96387.75;;;6.77;76.94
66479;BME280;53294;47.912;13.526;2024-02-28T09:24:27;96393.06;;;6.61;76.58
66479;BME280;53294;47.912;13.526;2024-02-28T09:26:54;96389.88;;;6.75;76.44
66479;BME280;53294;47.912;13.526;2024-02-28T09:29:20;96394.69;;;6.98;75.50
66479;BME280;53294;47.912;13.526;2024-02-28T09:31:47;96393.34;;;7.11;74.29
66479;BME280;53294;47.912;13.526;2024-02-28T09:34:14;96400.56;;;7.26;73.77
66479;BME280;53294;47.912;13.526;2024-02-28T09:36:44;96390.13;;;7.40;73.02
66479;BME280;53294;47.912;13.526;2024-02-28T09:39:16;96394.13;;;7.53;72.89
66479;BME280;53294;47.912;13.526;2024-02-28T09:41:44;96391.44;;;7.58;72.75
66479;BME280;53294;47.912;13.526;2024-02-28T09:44:16;96391.16;;;7.70;72.13
66479;BME280;53294;47.912;13.526;2024-02-28T09:46:43;96400.50;;;7.78;71.71
66479;BME280;53294;47.912;13.526;2024-02-28T09:49:10;96398.38;;;7.59;71.72
66479;BME280;53294;47.912;13.526;2024-02-28T09:51:37;96402.13;;;7.68;72.23
66479;BME280;53294;47.912;13.526;2024-02-28T09:54:04;96405.28;;;7.91;72.02
66479;BME280;53294;47.912;13.526;2024-02-28T09:56:32;96403.88;;;8.14;71.13
66479;BME280;53294;47.912;13.526;2024-02-28T09:59:00;96408.34;;;8.29;70.51
66479;BME280;53294;47.912;13.526;2024-02-28T10:01:29;96408.28;;;8.39;69.81
66479;BME280;53294;47.912;13.526;2024-02-28T10:03:59;96409.91;;;8.46;69.76
66479;BME280;53294;47.912;13.526;2024-02-28T10:06:26;96404.22;;;8.52;69.94
66479;BME280;53294;47.912;13.526;2024-02-28T10:08:53;96414.63;;;8.59;69.59
66479;BME280;53294;47.912;13.526;2024-02-28T10:11:22;96418.31;;;8.68;69.04
66479;BME280;53294;47.912;13.526;2024-02-28T10:13:52;96417.25;;;8.69;68.08
66479;BME280;53294;47.912;13.526;2024-02-28T10:16:19;96414.81;;;8.78;67.84
66479;BME280;53294;47.912;13.526;2024-02-28T10:18:45;96415.81;;;8.87;67.85
66479;BME280;53294;47.912;13.526;2024-02-28T10:21:12;96411.22;;;8.93;67.45
66479;BME280;53294;47.912;13.526;2024-02-28T10:23:41;96414.94;;;8.97;66.87
66479;BME280;53294;47.912;13.526;2024-02-28T10:26:12;96413.03;;;9.03;67.07
66479;BME280;53294;47.912;13.526;2024-02-28T10:28:40;96416.63;;;8.88;66.88
66479;BME280;53294;47.912;13.526;2024-02-28T10:31:07;96418.78;;;8.86;67.41
66479;BME280;53294;47.912;13.526;2024-02-28T10:33:34;96413.34;;;8.96;67.15
66479;BME280;53294;47.912;13.526;2024-02-28T10:36:04;96415.34;;;9.14;66.63
66479;BME280;53294;47.912;13.526;2024-02-28T10:38:32;96421.19;;;9.22;65.85
66479;BME280;53294;47.912;13.526;2024-02-28T10:41:05;96421.31;;;9.06;66.15
66479;BME280;53294;47.912;13.526;2024-02-28T10:43:38;96423.50;;;8.99;66.40
66479;BME280;53294;47.912;13.526;2024-02-28T10:46:06;96423.13;;;8.76;66.96
66479;BME280;53294;47.912;13.526;2024-02-28T10:48:55;96419.34;;;8.83;67.20
66479;BME280;53294;47.912;13.526;2024-02-28T10:51:24;96422.69;;;8.98;66.52
66479;BME280;53294;47.912;13.526;2024-02-28T10:54:11;96416.22;;;9.05;66.47
66479;BME280;53294;47.912;13.526;2024-02-28T10:56:40;96416.00;;;8.96;66.09
66479;BME280;53294;47.912;13.526;2024-02-28T10:59:10;96411.59;;;9.15;66.38
66479;BME280;53294;47.912;13.526;2024-02-28T11:01:43;96414.03;;;9.41;66.17
66479;BME280;53294;47.912;13.526;2024-02-28T11:04:12;96405.06;;;9.56;65.24
66479;BME280;53294;47.912;13.526;2024-02-28T11:06:56;96398.81;;;9.66;65.22
66479;BME280;53294;47.912;13.526;2024-02-28T11:09:28;96393.28;;;9.81;64.60
66479;BME280;53294;47.912;13.526;2024-02-28T11:11:56;96390.22;;;9.93;64.76
66479;BME280;53294;47.912;13.526;2024-02-28T11:14:24;96394.66;;;10.03;64.61
66479;BME280;53294;47.912;13.526;2024-02-28T11:17:04;96403.03;;;9.72;64.45
66479;BME280;53294;47.912;13.526;2024-02-28T11:19:33;96390.03;;;9.84;65.03
66479;BME280;53294;47.912;13.526;2024-02-28T11:22:02;96394.63;;;9.79;65.30
66479;BME280;53294;47.912;13.526;2024-02-28T11:24:35;96392.56;;;9.76;65.33
66479;BME280;53294;47.912;13.526;2024-02-28T11:27:04;96395.41;;;9.84;65.34
66479;BME280;53294;47.912;13.526;2024-02-28T11:29:33;96403.91;;;9.92;65.08
66479;BME280;53294;47.912;13.526;2024-02-28T11:32:00;96404.41;;;9.94;65.22
66479;BME280;53294;47.912;13.526;2024-02-28T11:34:26;96404.31;;;10.04;64.66
66479;BME280;53294;47.912;13.526;2024-02-28T11:36:53;96409.78;;;9.94;64.44
66479;BME280;53294;47.912;13.526;2024-02-28T11:39:22;96408.66;;;9.76;64.23
66479;BME280;53294;47.912;13.526;2024-02-28T11:41:52;96411.03;;;9.77;64.71
66479;BME280;53294;47.912;13.526;2024-02-28T11:44:19;96411.63;;;9.74;64.82
66479;BME280;53294;47.912;13.526;2024-02-28T11:46:47;96407.81;;;9.75;64.94
66479;BME280;53294;47.912;13.526;2024-02-28T11:49:15;96403.44;;;9.84;64.75
66479;BME280;53294;47.912;13.526;2024-02-28T11:51:42;96392.66;;;9.89;63.84
66479;BME280;53294;47.912;13.526;2024-02-28T11:54:10;96402.25;;;9.96;64.24
66479;BME280;53294;47.912;13.526;2024-02-28T11:56:38;96404.81;;;10.06;64.05
66479;BME280;53294;47.912;13.526;2024-02-28T11:59:06;96407.59;;;9.96;64.30
66479;BME280;53294;47.912;13.526;2024-02-28T12:01:40;96416.84;;;9.84;64.46
66479;BME280;53294;47.912;13.526;2024-02-28T12:04:08;96405.69;;;9.77;64.56
66479;BME280;53294;47.912;13.526;2024-02-28T12:06:36;96418.00;;;9.78;64.75
66479;BME280;53294;47.912;13.526;2024-02-28T12:09:05;96414.75;;;9.81;64.71
66479;BME280;53294;47.912;13.526;2024-02-28T12:11:33;96409.78;;;9.69;64.65
66479;BME280;53294;47.912;13.526;2024-02-28T12:14:08;96411.13;;;9.67;65.23
66479;BME280;53294;47.912;13.526;2024-02-28T12:16:39;96410.00;;;9.73;64.96
66479;BME280;53294;47.912;13.526;2024-02-28T12:19:10;96409.66;;;9.80;64.53
66479;BME280;53294;47.912;13.526;2024-02-28T12:21:38;96409.56;;;9.90;64.22
66479;BME280;53294;47.912;13.526;2024-02-28T12:24:09;96408.75;;;9.89;64.64
66479;BME280;53294;47.912;13.526;2024-02-28T12:26:37;96410.44;;;9.80;64.69
66479;BME280;53294;47.912;13.526;2024-02-28T12:29:04;96408.41;;;9.72;64.95
66479;BME280;53294;47.912;13.526;2024-02-28T12:31:31;96409.66;;;9.56;65.58
66479;BME280;53294;47.912;13.526;2024-02-28T12:33:58;96416.59;;;9.57;64.37
66479;BME280;53294;47.912;13.526;2024-02-28T12:36:25;96411.66;;;9.40;65.24
66479;BME280;53294;47.912;13.526;2024-02-28T12:38:53;96416.84;;;9.31;66.28
66479;BME280;53294;47.912;13.526;2024-02-28T12:41:20;96403.31;;;9.41;66.57
66479;BME280;53294;47.912;13.526;2024-02-28T12:43:47;96415.31;;;9.49;66.27
66479;BME280;53294;47.912;13.526;2024-02-28T12:46:13;96408.59;;;9.51;65.37
66479;BME280;53294;47.912;13.526;2024-02-28T12:48:40;96410.22;;;9.52;65.72
66479;BME280;53294;47.912;13.526;2024-02-28T12:51:10;96407.47;;;9.58;65.70
66479;BME280;53294;47.912;13.526;2024-02-28T12:53:38;96408.47;;;9.67;65.30
66479;BME280;53294;47.912;13.526;2024-02-28T12:56:04;96407.38;;;9.68;65.21
66479;BME280;53294;47.912;13.526;2024-02-28T12:58:31;96413.88;;;9.62;65.54
66479;BME280;53294;47.912;13.526;2024-02-28T13:00:58;96418.28;;;9.47;65.79
66479;BME280;53294;47.912;13.526;2024-02-28T13:03:25;96413.47;;;9.44;65.74